createdAt,value
2019-04-26T00:02:16.080Z,1.80
2019-04-26T00:04:44.677Z,2.03
2019-04-26T00:07:13.301Z,1.90
2019-04-26T00:09:43.628Z,1.87
2019-04-26T00:12:14.448Z,1.77
2019-04-26T00:14:44.668Z,1.70
2019-04-26T00:17:15.451Z,1.73
2019-04-26T00:19:44.427Z,1.97
2019-04-26T00:22:13.231Z,1.87
2019-04-26T00:24:42.457Z,1.90
2019-04-26T00:27:11.401Z,2.50
2019-04-26T00:29:40.198Z,2.03
2019-04-26T00:32:09.128Z,2.17
2019-04-26T00:34:37.726Z,1.90
2019-04-26T00:37:07.197Z,2.07
2019-04-26T00:39:35.649Z,2.10
2019-04-26T00:42:04.814Z,2.00
2019-04-26T00:44:34.238Z,2.13
2019-04-26T00:47:04.065Z,2.57
2019-04-26T00:49:43.602Z,2.13
2019-04-26T00:52:05.421Z,2.10
2019-04-26T00:54:35.102Z,2.10
2019-04-26T00:57:05.241Z,2.35
2019-04-26T00:59:34.963Z,2.50
2019-04-26T01:02:11.460Z,2.07
2019-04-26T01:04:39.918Z,1.90
2019-04-26T01:07:08.484Z,2.40
2019-04-26T01:09:36.973Z,2.10
2019-04-26T01:12:05.719Z,2.10
2019-04-26T01:14:34.210Z,2.20
2019-04-26T01:17:03.011Z,2.60
2019-04-26T01:19:33.256Z,2.50
2019-04-26T01:22:04.901Z,2.37
2019-04-26T01:24:35.485Z,2.93
2019-04-26T01:27:07.295Z,2.60
2019-04-26T01:29:37.795Z,2.30
2019-04-26T01:32:09.375Z,2.30
2019-04-26T01:34:40.380Z,2.97
2019-04-26T01:37:09.692Z,2.40
2019-04-26T01:39:41.779Z,2.77
2019-04-26T01:42:30.242Z,2.30
2019-04-26T01:45:03.466Z,2.40
2019-04-26T01:47:33.354Z,2.40
2019-04-26T01:50:02.158Z,2.73
2019-04-26T01:52:31.940Z,2.83
2019-04-26T01:55:01.193Z,2.57
2019-04-26T01:57:31.566Z,2.30
2019-04-26T02:00:04.866Z,2.83
2019-04-26T02:02:34.990Z,2.63
2019-04-26T02:05:06.235Z,2.83
2019-04-26T02:07:41.564Z,2.63
2019-04-26T02:10:15.918Z,2.60
2019-04-26T02:12:47.564Z,2.80
2019-04-26T02:15:18.860Z,2.72
2019-04-26T02:17:49.830Z,3.30
2019-04-26T02:20:56.367Z,3.27
2019-04-26T02:23:30.053Z,2.63
2019-04-26T02:26:00.967Z,3.00
2019-04-26T02:28:30.990Z,3.33
2019-04-26T02:30:59.711Z,3.27
2019-04-26T02:33:29.671Z,3.13
2019-04-26T02:35:58.928Z,3.27
2019-04-26T02:38:29.285Z,3.00
2019-04-26T02:40:58.173Z,2.90
2019-04-26T02:43:28.592Z,3.17
2019-04-26T02:45:59.331Z,3.30
2019-04-26T02:48:44.581Z,3.93
2019-04-26T02:51:19.023Z,3.23
2019-04-26T02:53:56.668Z,3.30
2019-04-26T02:56:33.291Z,3.40
2019-04-26T02:59:07.809Z,3.43
2019-04-26T03:01:38.233Z,3.30
2019-04-26T03:04:06.636Z,3.63
2019-04-26T03:06:38.393Z,3.70
2019-04-26T03:09:08.146Z,3.70
2019-04-26T03:11:43.382Z,3.63
2019-04-26T03:14:16.898Z,3.47
2019-04-26T03:16:50.129Z,3.67
2019-04-26T03:19:25.861Z,3.53
2019-04-26T03:22:09.062Z,3.73
2019-04-26T03:25:00.271Z,3.10
2019-04-26T03:27:43.023Z,3.50
2019-04-26T03:30:21.145Z,3.40
2019-04-26T03:33:10.062Z,3.70
2019-04-26T03:36:01.693Z,3.70
2019-04-26T03:38:55.269Z,3.40
2019-04-26T03:41:44.418Z,3.70
2019-04-26T03:44:21.702Z,4.13
2019-04-26T03:46:56.393Z,4.20
2019-04-26T03:49:38.037Z,4.30
2019-04-26T03:52:18.438Z,3.80
2019-04-26T03:54:50.071Z,4.03
2019-04-26T03:57:26.061Z,4.03
2019-04-26T04:00:01.851Z,4.30
2019-04-26T04:02:36.617Z,4.77
2019-04-26T04:05:12.961Z,4.20
2019-04-26T04:07:48.089Z,4.07
2019-04-26T04:10:41.967Z,4.10
2019-04-26T04:13:18.045Z,4.33
2019-04-26T04:15:52.790Z,4.30
2019-04-26T04:18:30.639Z,5.23
2019-04-26T04:21:40.718Z,4.87
2019-04-26T04:24:12.815Z,4.50
2019-04-26T04:26:53.595Z,4.77
2019-04-26T04:29:58.101Z,5.07
2019-04-26T04:32:32.749Z,4.57
2019-04-26T04:35:06.614Z,5.10
2019-04-26T04:38:04.336Z,4.43
2019-04-26T04:40:47.129Z,5.07
2019-04-26T04:43:20.836Z,5.03
2019-04-26T04:46:00.030Z,5.10
2019-04-26T04:48:47.051Z,4.83
2019-04-26T04:51:40.831Z,5.10
2019-04-26T04:54:37.614Z,4.77
2019-04-26T04:57:12.117Z,4.77
2019-04-26T04:59:52.627Z,5.00
2019-04-26T05:02:37.230Z,4.53
2019-04-26T05:05:31.238Z,4.73
2019-04-26T05:08:14.588Z,4.90
2019-04-26T05:10:55.083Z,4.63
2019-04-26T05:13:35.433Z,5.50
2019-04-26T05:16:24.198Z,4.67
2019-04-26T05:19:22.714Z,4.70
2019-04-26T05:22:02.810Z,5.17
2019-04-26T05:25:00.041Z,4.93
2019-04-26T05:27:42.061Z,5.13
2019-04-26T05:30:30.025Z,4.97
2019-04-26T05:33:25.925Z,5.23
2019-04-26T05:36:02.051Z,5.27
2019-04-26T05:38:39.282Z,5.23
2019-04-26T05:41:10.875Z,5.27
2019-04-26T05:44:00.286Z,5.40
2019-04-26T05:46:36.311Z,4.90
2019-04-26T05:49:29.079Z,5.40
2019-04-26T05:52:21.826Z,4.70
2019-04-26T05:55:15.971Z,5.13
2019-04-26T05:58:03.341Z,4.47
2019-04-26T06:01:12.310Z,4.93
2019-04-26T06:04:04.478Z,5.53
2019-04-26T06:06:37.745Z,5.50
2019-04-26T06:09:28.465Z,4.80
2019-04-26T06:12:01.656Z,5.03
2019-04-26T06:14:53.002Z,4.77
2019-04-26T06:17:26.417Z,4.90
2019-04-26T06:20:28.134Z,4.77
2019-04-26T06:23:08.638Z,4.87
2019-04-26T06:26:20.653Z,5.47
2019-04-26T06:28:54.954Z,5.33
2019-04-26T06:31:35.817Z,4.93
2019-04-26T06:34:13.437Z,5.43
2019-04-26T06:36:56.132Z,5.17
2019-04-26T06:39:32.296Z,4.73
2019-04-26T06:42:30.897Z,5.07
2019-04-26T06:45:12.825Z,5.20
2019-04-26T06:48:26.313Z,5.93
2019-04-26T06:50:58.500Z,5.13
2019-04-26T06:53:54.570Z,5.13
2019-04-26T06:56:49.053Z,5.63
2019-04-26T06:59:38.850Z,5.97
2019-04-26T07:02:25.489Z,5.50
2019-04-26T07:05:09.512Z,5.33
2019-04-26T07:08:09.689Z,5.30
2019-04-26T07:11:06.906Z,4.83
2019-04-26T07:13:59.166Z,6.47
2019-04-26T07:16:42.731Z,6.50
2019-04-26T07:19:50.163Z,5.47
2019-04-26T07:22:35.237Z,6.42
2019-04-26T07:25:06.990Z,6.10
2019-04-26T07:28:12.234Z,5.73
2019-04-26T07:30:49.428Z,5.37
2019-04-26T07:33:41.233Z,5.50
2019-04-26T07:36:28.355Z,5.70
2019-04-26T07:39:28.768Z,5.37
2019-04-26T07:42:13.907Z,5.50
2019-04-26T07:44:56.027Z,5.53
2019-04-26T07:47:52.802Z,5.10
2019-04-26T07:50:24.359Z,5.58
2019-04-26T07:53:04.950Z,5.07
2019-04-26T07:55:45.659Z,5.27
2019-04-26T07:58:51.885Z,5.27
2019-04-26T08:01:36.186Z,5.33
2019-04-26T08:04:12.363Z,4.63
2019-04-26T08:06:45.564Z,5.03
2019-04-26T08:09:26.592Z,5.05
2019-04-26T08:11:54.146Z,5.13
2019-04-26T08:14:32.691Z,4.87
2019-04-26T08:17:27.186Z,4.90
2019-04-26T08:20:18.310Z,4.60
2019-04-26T08:22:52.147Z,5.13
2019-04-26T08:25:22.690Z,4.97
2019-04-26T08:27:54.491Z,5.10
2019-04-26T08:30:26.298Z,4.80
2019-04-26T08:32:57.438Z,5.63
2019-04-26T08:35:30.080Z,4.73
2019-04-26T08:38:07.964Z,5.13
2019-04-26T08:40:35.477Z,5.13
2019-04-26T08:43:13.953Z,4.83
2019-04-26T08:46:03.101Z,4.77
2019-04-26T08:48:49.179Z,5.10
2019-04-26T08:51:22.164Z,4.50
2019-04-26T08:53:52.981Z,5.00
2019-04-26T08:56:30.223Z,4.87
2019-04-26T08:59:02.310Z,5.12
2019-04-26T09:01:51.097Z,4.45
2019-04-26T09:04:32.238Z,5.37
2019-04-26T09:07:05.506Z,4.72
2019-04-26T09:09:36.652Z,4.67
2019-04-26T09:12:23.008Z,4.35
2019-04-26T09:14:47.494Z,4.30
2019-04-26T09:17:16.594Z,4.55
2019-04-26T09:19:45.555Z,4.80
2019-04-26T09:22:26.568Z,4.20
2019-04-26T09:25:00.852Z,5.22
2019-04-26T09:27:33.987Z,4.50
2019-04-26T09:30:06.822Z,4.35
2019-04-26T09:32:37.012Z,4.85
2019-04-26T09:35:07.210Z,5.00
2019-04-26T09:37:35.694Z,5.17
2019-04-26T09:40:10.617Z,5.33
2019-04-26T09:42:55.302Z,4.60
2019-04-26T09:45:34.641Z,5.03
2019-04-26T09:48:04.771Z,5.17
2019-04-26T09:50:40.735Z,5.30
2019-04-26T09:53:09.287Z,4.78
2019-04-26T09:55:40.946Z,4.78
2019-04-26T09:58:10.550Z,4.70
2019-04-26T10:00:40.066Z,4.35
2019-04-26T10:03:09.400Z,4.78
2019-04-26T10:05:40.383Z,4.78
2019-04-26T10:08:13.145Z,4.33
2019-04-26T10:10:54.940Z,5.17
2019-04-26T10:16:33.613Z,4.67
2019-04-26T10:19:03.628Z,4.92
2019-04-26T10:21:32.488Z,4.62
2019-04-26T10:24:01.013Z,4.58
2019-04-26T10:26:29.880Z,4.55
2019-04-26T10:28:58.837Z,5.28
2019-04-26T10:31:27.899Z,4.78
2019-04-26T10:33:56.722Z,4.85
2019-04-26T10:36:26.281Z,4.25
2019-04-26T10:38:58.483Z,4.60
2019-04-26T10:41:27.266Z,4.90
2019-04-26T10:43:56.172Z,3.92
2019-04-26T10:46:28.212Z,4.30
2019-04-26T10:49:02.690Z,3.77
2019-04-26T10:51:30.673Z,4.22
2019-04-26T10:54:01.596Z,3.92
2019-04-26T10:56:35.620Z,3.80
2019-04-26T10:59:09.776Z,4.00
2019-04-26T11:01:37.786Z,4.30
2019-04-26T11:04:06.599Z,4.40
2019-04-26T11:06:35.201Z,4.22
2019-04-26T11:09:07.268Z,3.92
2019-04-26T11:11:36.699Z,3.80
2019-04-26T11:14:05.459Z,4.45
2019-04-26T11:16:41.176Z,4.42
2019-04-26T11:19:09.811Z,4.00
2019-04-26T11:21:38.392Z,3.85
2019-04-26T11:24:06.915Z,3.72
2019-04-26T11:26:36.499Z,3.65
2019-04-26T11:29:05.346Z,3.72
2019-04-26T11:31:33.849Z,3.83
2019-04-26T11:34:05.539Z,3.80
2019-04-26T11:36:32.739Z,3.37
2019-04-26T11:39:05.394Z,3.25
2019-04-26T11:41:34.026Z,2.87
2019-04-26T11:44:02.054Z,3.02
2019-04-26T11:46:43.952Z,3.30
2019-04-26T11:49:03.178Z,2.90
2019-04-26T11:51:32.922Z,4.35
2019-04-26T11:54:01.587Z,3.60
2019-04-26T11:56:30.170Z,3.42
2019-04-26T11:58:58.832Z,3.20
2019-04-26T12:01:28.951Z,2.60
2019-04-26T12:04:01.738Z,2.90
2019-04-26T12:06:37.692Z,3.40
2019-04-26T12:09:11.432Z,2.72
2019-04-26T12:11:50.858Z,2.60
2019-04-26T12:14:20.411Z,2.42
2019-04-26T12:16:49.376Z,2.58
2019-04-26T12:19:27.811Z,3.07
2019-04-26T12:21:58.534Z,2.70
2019-04-26T12:24:29.998Z,2.50
2019-04-26T12:26:59.381Z,2.45
2019-04-26T12:29:27.943Z,2.50
2019-04-26T12:32:10.136Z,2.60
2019-04-26T12:34:42.845Z,2.85
2019-04-26T12:39:53.938Z,3.40
2019-04-26T12:42:22.710Z,2.87
2019-04-26T12:45:12.241Z,3.37
2019-04-26T12:47:56.428Z,3.60
2019-04-26T12:50:29.554Z,3.75
2019-04-26T12:52:59.030Z,3.90
2019-04-26T12:55:27.502Z,3.83
2019-04-26T12:57:56.335Z,3.90
2019-04-26T13:00:26.626Z,4.03
2019-04-26T13:02:55.802Z,4.50
2019-04-26T13:05:27.902Z,3.90
2019-04-26T13:07:56.434Z,3.92
2019-04-26T13:10:46.249Z,3.65
2019-04-26T13:13:16.930Z,3.72
2019-04-26T13:16:05.812Z,3.92
2019-04-26T13:18:35.097Z,4.00
2019-04-26T13:21:08.482Z,3.42
2019-04-26T13:23:37.559Z,3.35
2019-04-26T13:26:39.131Z,3.55
2019-04-26T13:29:11.553Z,4.17
2019-04-26T13:31:41.284Z,3.85
2019-04-26T13:34:10.222Z,3.87
2019-04-26T13:36:39.220Z,3.80
2019-04-26T13:39:13.447Z,3.72
2019-04-26T13:41:43.745Z,3.90
2019-04-26T13:44:14.127Z,3.93
2019-04-26T13:46:49.909Z,4.17
2019-04-26T13:49:36.559Z,3.60
2019-04-26T13:52:05.670Z,3.15
2019-04-26T13:54:34.252Z,3.20
2019-04-26T13:57:06.214Z,2.92
2019-04-26T13:59:33.558Z,2.80
2019-04-26T14:02:11.490Z,2.95
2019-04-26T14:04:32.602Z,2.17
2019-04-26T14:07:01.302Z,2.42
2019-04-26T14:09:30.290Z,2.67
2019-04-26T14:12:03.339Z,2.02
2019-04-26T14:14:34.198Z,2.37
2019-04-26T14:17:01.129Z,2.55
2019-04-26T14:19:29.971Z,2.83
2019-04-26T14:22:03.116Z,2.62
2019-04-26T14:24:35.466Z,2.45
2019-04-26T14:27:06.226Z,3.05
2019-04-26T14:29:34.709Z,2.70
2019-04-26T14:32:03.413Z,3.00
2019-04-26T14:34:31.971Z,2.98
2019-04-26T14:37:06.754Z,2.60
2019-04-26T14:39:49.300Z,2.87
2019-04-26T14:42:01.697Z,3.40
2019-04-26T14:44:32.838Z,2.62
2019-04-26T14:47:12.720Z,2.83
2019-04-26T14:49:38.953Z,2.83
2019-04-26T14:52:00.837Z,3.20
2019-04-26T14:54:29.326Z,3.73
2019-04-26T14:56:59.869Z,3.10
2019-04-26T14:59:30.099Z,2.62
2019-04-26T15:02:00.225Z,2.58
2019-04-26T15:04:39.471Z,2.05
2019-04-26T15:07:07.950Z,2.05
2019-04-26T15:09:36.730Z,2.10
2019-04-26T15:12:07.689Z,2.50
2019-04-26T15:14:35.850Z,2.30
2019-04-26T15:17:04.765Z,2.05
2019-04-26T15:19:35.112Z,2.50
2019-04-26T15:22:10.088Z,2.52
2019-04-26T15:24:35.160Z,2.30
2019-04-26T15:27:04.704Z,1.90
2019-04-26T15:29:33.780Z,2.22
2019-04-26T15:32:03.159Z,1.98
2019-04-26T15:34:32.588Z,2.47
2019-04-26T15:37:02.886Z,2.52
2019-04-26T15:39:50.201Z,3.17
2019-04-26T15:42:23.746Z,3.72
2019-04-26T15:44:51.663Z,2.30
2019-04-26T15:47:24.911Z,2.90
2019-04-26T15:50:03.962Z,3.00
2019-04-26T15:52:34.076Z,2.90
2019-04-26T15:55:04.085Z,2.52
2019-04-26T15:57:32.944Z,2.60
2019-04-26T16:00:03.875Z,2.77
2019-04-26T16:02:32.186Z,2.70
2019-04-26T16:05:02.221Z,2.90
2019-04-26T16:07:30.958Z,2.98
2019-04-26T16:09:59.502Z,3.47
2019-04-26T16:12:27.965Z,2.80
2019-04-26T16:14:56.549Z,3.05
2019-04-26T16:17:25.910Z,2.80
2019-04-26T16:19:56.083Z,2.95
2019-04-26T16:22:25.882Z,2.70
2019-04-26T16:24:58.238Z,3.55
2019-04-26T16:27:31.160Z,3.00
2019-04-26T16:30:03.040Z,2.95
2019-04-26T16:32:36.061Z,3.10
2019-04-26T16:35:07.576Z,3.50
2019-04-26T16:37:36.164Z,2.85
2019-04-26T16:40:07.753Z,3.47
2019-04-26T16:42:38.947Z,2.77
2019-04-26T16:45:09.542Z,3.12
2019-04-26T16:47:45.181Z,2.87
2019-04-26T16:50:08.749Z,2.62
2019-04-26T16:52:42.295Z,2.90
2019-04-26T16:55:18.219Z,3.02
2019-04-26T16:57:43.894Z,2.85
2019-04-26T17:00:09.613Z,2.50
2019-04-26T17:02:38.204Z,1.90
2019-04-26T17:05:19.180Z,1.80
2019-04-26T17:07:39.375Z,2.20
2019-04-26T17:10:08.497Z,2.20
2019-04-26T17:12:37.037Z,2.20
2019-04-26T17:15:07.847Z,1.85
2019-04-26T17:17:36.327Z,2.42
2019-04-26T17:20:24.140Z,2.27
2019-04-26T17:23:12.393Z,2.35
2019-04-26T17:26:00.066Z,2.52
2019-04-26T17:28:29.667Z,2.05
2019-04-26T17:30:59.005Z,2.27
2019-04-26T17:33:28.199Z,2.30
2019-04-26T17:35:57.831Z,2.20
2019-04-26T17:38:26.769Z,2.67
2019-04-26T17:40:55.523Z,2.45
2019-04-26T17:43:24.160Z,2.22
2019-04-26T17:45:52.643Z,2.15
2019-04-26T17:48:21.659Z,2.50
2019-04-26T17:50:50.331Z,2.10
2019-04-26T17:53:28.149Z,2.10
2019-04-26T17:55:50.965Z,2.05
2019-04-26T17:58:27.419Z,2.30
2019-04-26T18:00:51.423Z,2.05
2019-04-26T18:03:21.402Z,2.25
2019-04-26T18:05:57.104Z,2.00
2019-04-26T18:08:35.939Z,1.90
2019-04-26T18:10:51.684Z,1.90
2019-04-26T18:13:20.523Z,1.90
2019-04-26T18:15:49.399Z,1.85
2019-04-26T18:18:31.521Z,1.50
2019-04-26T18:21:20.252Z,1.82
2019-04-26T18:23:48.850Z,2.10
2019-04-26T18:26:21.592Z,1.95
2019-04-26T20:01:16.519Z,4.30
2019-04-26T20:03:47.227Z,3.92
2019-04-26T20:06:18.900Z,4.55
2019-04-26T20:08:47.929Z,4.30
2019-04-26T20:11:18.900Z,4.53
2019-04-26T20:13:46.980Z,3.80
2019-04-26T20:16:15.446Z,4.10
2019-04-26T20:18:44.054Z,4.08
2019-04-26T20:21:15.347Z,5.08
2019-04-26T20:23:47.216Z,3.95
2019-04-26T20:26:13.316Z,4.60
2019-04-26T20:28:43.460Z,4.70
2019-04-26T20:31:13.637Z,4.55
2019-04-26T20:33:42.493Z,4.35
2019-04-26T20:36:11.511Z,5.40
2019-04-26T20:38:43.639Z,4.83
2019-04-26T20:41:13.288Z,5.25
2019-04-26T20:43:46.235Z,5.12
2019-04-26T20:46:15.181Z,5.22
2019-04-26T20:48:42.602Z,4.67
2019-04-26T20:51:12.074Z,4.90
2019-04-26T20:53:43.457Z,5.03
2019-04-26T20:56:16.622Z,4.90
2019-04-26T20:58:43.232Z,4.70
2019-04-26T21:01:14.027Z,4.93
2019-04-26T21:03:46.019Z,5.00
2019-04-26T21:06:13.951Z,4.50
2019-04-26T21:08:42.593Z,4.43
2019-04-26T21:11:13.591Z,4.40
2019-04-26T21:13:41.776Z,3.70
2019-04-26T21:16:14.373Z,3.35
2019-04-26T21:18:44.009Z,2.83
2019-04-26T21:21:11.860Z,3.00
2019-04-26T21:23:42.275Z,3.13
2019-04-26T21:26:16.657Z,2.70
2019-04-26T21:28:47.074Z,3.07
2019-04-26T21:31:17.335Z,1.70
2019-04-26T21:33:47.674Z,1.70
2019-04-26T21:36:40.827Z,2.00
2019-04-26T21:39:17.805Z,1.60
2019-04-26T21:41:48.507Z,1.80
2019-04-26T21:44:17.265Z,1.67
2019-04-26T21:46:49.591Z,2.00
2019-04-26T21:49:20.296Z,1.90
2019-04-26T21:51:51.318Z,1.97
2019-04-26T21:54:19.133Z,1.87
2019-04-26T21:56:49.766Z,1.90
2019-04-26T21:59:18.271Z,2.13
2019-04-26T22:01:48.283Z,2.30
2019-04-26T22:04:17.778Z,2.10
2019-04-26T22:06:46.250Z,2.00
2019-04-26T22:09:23.940Z,2.10
2019-04-26T22:11:53.962Z,2.17
2019-04-26T22:14:30.238Z,2.27
2019-04-26T22:17:02.018Z,2.57
2019-04-26T22:19:43.204Z,2.30
2019-04-26T22:22:15.137Z,3.60
2019-04-26T22:24:45.334Z,3.57
2019-04-26T22:27:17.293Z,3.47
2019-04-26T22:29:47.592Z,3.10
2019-04-26T22:32:17.757Z,3.70
2019-04-26T22:34:46.241Z,3.47
2019-04-26T22:37:28.843Z,2.90
2019-04-26T22:39:45.308Z,3.10
2019-04-26T22:42:14.762Z,2.83
2019-04-26T22:44:47.351Z,2.40
2019-04-26T22:47:20.279Z,2.60
2019-04-26T22:49:48.742Z,2.40
2019-04-26T22:52:17.206Z,2.30
2019-04-26T22:54:46.699Z,2.60
2019-04-26T22:57:16.465Z,2.73
2019-04-26T22:59:49.887Z,2.53
2019-04-26T23:02:18.270Z,2.53
2019-04-26T23:04:47.433Z,2.37
2019-04-26T23:07:18.339Z,2.17
2019-04-26T23:09:51.849Z,2.47
2019-04-26T23:12:25.110Z,2.13
2019-04-26T23:14:55.221Z,2.40
2019-04-26T23:17:40.497Z,2.93
2019-04-26T23:20:16.727Z,2.33
2019-04-26T23:22:45.213Z,2.20
2019-04-26T23:25:13.755Z,2.30
2019-04-26T23:27:43.573Z,2.27
2019-04-26T23:30:14.554Z,1.83
2019-04-26T23:32:43.567Z,2.80
2019-04-26T23:35:13.771Z,2.10
2019-04-26T23:37:42.710Z,2.30
2019-04-26T23:40:11.313Z,2.20
2019-04-26T23:42:39.778Z,2.33
2019-04-26T23:45:10.930Z,2.03
2019-04-26T23:47:40.873Z,2.27
2019-04-26T23:50:09.973Z,2.40
2019-04-26T23:52:38.446Z,2.33
2019-04-26T23:55:08.786Z,2.27
2019-04-26T23:57:37.169Z,2.20
